Список аэропортов
Фактическая погода:

01 марта, 22:30
Температура: +5°C (+0.9*)
Ветер: западный 6 м/с
Давление: *757 мм
неб. облачность
870 м
разорв. обл.
1230 м
облачно
1710 м
слаб. дождь
Время (МСК)Темп. СВетерВлажностьДавлениеОблачностьОсадки
21:00+12З, 5 м/с63%1007 гПаоблачнодождь
22:00+11З, 4 м/с67%1007 гПаоблачнодождь
23:00+9СЗ, 10 м/с74%1008 гПаоблачнодождь
02 марта
00:00+6СЗ, 8 м/с77%1010 гПаоблачнодождь
01:00+5СЗ, 6 м/с79%1011 гПаоблачнодождь
02:00+5СЗ, 7 м/с77%1012 гПаоблачносл. дождь
03:00+5З, 7 м/с77%1012 гПаоблачно
04:00+4З, 7 м/с77%1013 гПаоблачно
05:00+4З, 7 м/с76%1013 гПаоблачно
06:00+3З, 6 м/с76%1013 гПамалооблачно
07:00+3З, 6 м/с77%1014 гПаясно
08:00+3З, 6 м/с77%1015 гПаясно
09:00+3З, 7 м/с77%1016 гПаясно
10:00+4З, 7 м/с74%1016 гПаясно
11:00+6З, 6 м/с67%1016 гПамалооблачно
12:00+7СЗ, 6 м/с59%1016 гПаясно
13:00+8СЗ, 5 м/с54%1015 гПаясно
14:00+10СЗ, 5 м/с49%1015 гПаясно
15:00+10СЗ, 5 м/с44%1014 гПаясно
16:00+11СЗ, 5 м/с41%1014 гПаясно
17:00+11СЗ, 4 м/с40%1015 гПаясно
18:00+10СЗ, 3 м/с40%1015 гПаясно
19:00+9СЗ, 2 м/с42%1016 гПамалооблачно
20:00+7З, 2 м/с52%1017 гПамалооблачно
21:00+6ЮЗ, 2 м/с57%1019 гПас прояснениями
22:00+6ЮЗ, 2 м/с62%1019 гПас прояснениями
23:00+5ЮЗ, 2 м/с67%1020 гПаясно
03 марта
00:00+4ЮЗ, 2 м/с70%1020 гПаясно
01:00+3ЮЗ, 1 м/с71%1020 гПаясно
02:00+3З, 1 м/с67%1021 гПас прояснениями
03:00+3З, 1 м/с67%1020 гПас прояснениями
04:00+2ЮЗ, 1 м/с70%1021 гПас прояснениями
05:00+2ЮЗ, 1 м/с72%1020 гПаясно
06:00+1ЮЗ, 1 м/с74%1021 гПамалооблачно
07:00+1ЮЗ, 1 м/с75%1021 гПамалооблачно
08:00+1ЮЗ, 1 м/с76%1021 гПамалооблачно
09:00+2ЮЗ, 1 м/с74%1022 гПас прояснениями
10:00+4З, 1 м/с67%1021 гПамалооблачно
11:00+8СЗ, 2 м/с54%1021 гПамалооблачно
12:00+9СЗ, 3 м/с52%1020 гПас прояснениями
13:00+11СЗ, 3 м/с52%1020 гПас прояснениями
14:00+12СЗ, 4 м/с52%1020 гПаоблачно
15:00+13СЗ, 4 м/с45%1020 гПаоблачно
16:00+13СЗ, 4 м/с37%1020 гПаоблачно
17:00+13СЗ, 3 м/с32%1020 гПаоблачно
18:00+12С, 3 м/с30%1021 гПас прояснениями
19:00+11С, 2 м/с32%1021 гПаясно
20:00+8С, 1 м/с42%1022 гПаясно
21:00+6СВ, 1 м/с51%1024 гПаясно